首页
METAR-TAF:

METAR-TAF

机场 :

Paganella, 意大利

纬度: 46-09N, 经度: 011-02E, 海拔: 2125米

当前天气观测

该预报发布于1小时和20分钟前的10:55 UTC
风速10节,风向北转东北
温度 5°C
湿度 41%
气压 1031 hPa
能见度10公里或以上
1500米以下无云,无积雨云

METAR: LIVP 071055Z 02010KT CAVOK 05/M07 Q1031 RMK SKC MON LIB VAL NIL VIS MIN 9999

时间: 14:15 (12:15 UTC)


TAF: 丢失

超过4000个机场的气象观测和天气预报(METAR&TAF报告)。

可查询的气象台以黄色和红色小点在地图上表示。

将鼠标移到小点上方,可查看气象台名称。

然后点击查看天气观测和预报。

如需切换地图:点击带黑十字的绿色按钮放大地图;点击带横线的绿色按钮缩小地图;或者点击绿色箭头查看邻近地区的地图。


METAR-TAF: